createdAt,value
2019-03-24T00:00:39.533Z,10.34
2019-03-24T00:03:09.009Z,10.40
2019-03-24T00:05:38.438Z,10.44
2019-03-24T00:08:07.873Z,10.37
2019-03-24T00:10:37.331Z,10.33
2019-03-24T00:13:06.816Z,10.35
2019-03-24T00:15:36.235Z,10.21
2019-03-24T00:18:05.794Z,10.11
2019-03-24T00:20:35.255Z,10.12
2019-03-24T00:23:04.806Z,10.11
2019-03-24T00:25:34.207Z,10.04
2019-03-24T00:28:03.717Z,10.04
2019-03-24T00:30:33.216Z,10.02
2019-03-24T00:33:02.608Z,9.95
2019-03-24T00:35:32.033Z,9.82
2019-03-24T00:38:01.495Z,9.82
2019-03-24T00:40:30.918Z,9.78
2019-03-24T00:43:00.353Z,9.75
2019-03-24T00:45:36.758Z,9.72
2019-03-24T00:48:01.044Z,9.58
2019-03-24T00:50:30.510Z,9.52
2019-03-24T00:52:59.999Z,9.50
2019-03-24T00:55:29.432Z,9.39
2019-03-24T00:57:58.868Z,9.31
2019-03-24T01:00:45.437Z,9.13
2019-03-24T01:03:15.788Z,9.09
2019-03-24T01:05:46.061Z,9.02
2019-03-24T01:08:16.021Z,9.02
2019-03-24T01:10:45.449Z,8.99
2019-03-24T01:13:15.340Z,8.96
2019-03-24T01:15:47.957Z,8.89
2019-03-24T01:18:16.108Z,8.87
2019-03-24T01:20:45.571Z,8.86
2019-03-24T01:23:15.109Z,8.81
2019-03-24T01:25:44.538Z,8.71
2019-03-24T01:28:14.081Z,8.63
2019-03-24T01:30:43.579Z,8.56
2019-03-24T01:33:13.262Z,8.54
2019-03-24T01:35:42.694Z,8.52
2019-03-24T01:38:12.130Z,8.44
2019-03-24T01:40:41.616Z,8.35
2019-03-24T01:43:11.021Z,8.38
2019-03-24T01:45:40.478Z,8.31
2019-03-24T01:48:10.007Z,8.27
2019-03-24T01:50:39.453Z,8.22
2019-03-24T01:53:08.881Z,8.12
2019-03-24T01:55:38.371Z,8.11
2019-03-24T01:58:07.909Z,8.12
2019-03-24T02:00:37.447Z,8.07
2019-03-24T02:03:06.878Z,8.08
2019-03-24T02:05:36.515Z,8.01
2019-03-24T02:08:05.931Z,7.97
2019-03-24T02:10:35.503Z,7.88
2019-03-24T02:13:04.378Z,7.92
2019-03-24T02:15:33.840Z,7.86
2019-03-24T02:18:02.682Z,7.85
2019-03-24T02:20:32.359Z,7.88
2019-03-24T02:23:01.816Z,7.78
2019-03-24T02:25:30.756Z,7.79
2019-03-24T02:27:59.703Z,7.86
2019-03-24T02:30:29.121Z,7.85
2019-03-24T02:32:57.963Z,7.86
2019-03-24T02:35:26.822Z,7.88
2019-03-24T02:37:55.813Z,7.84
2019-03-24T02:40:24.839Z,7.70
2019-03-24T02:42:53.804Z,7.64
2019-03-24T02:45:22.742Z,7.59
2019-03-24T02:47:51.587Z,7.48
2019-03-24T02:50:20.583Z,7.47
2019-03-24T02:52:49.519Z,7.40
2019-03-24T02:55:18.387Z,7.34
2019-03-24T02:57:47.319Z,7.27
2019-03-24T03:00:16.455Z,7.27
2019-03-24T03:02:45.486Z,7.25
2019-03-24T03:05:14.318Z,7.16
2019-03-24T03:07:43.231Z,7.12
2019-03-24T03:10:12.377Z,7.08
2019-03-24T03:12:41.414Z,7.03
2019-03-24T03:15:10.874Z,6.93
2019-03-24T03:17:39.801Z,6.91
2019-03-24T03:20:09.535Z,6.90
2019-03-24T03:22:38.368Z,6.80
2019-03-24T03:25:31.065Z,6.81
2019-03-24T03:28:00.004Z,6.82
2019-03-24T03:30:29.058Z,6.71
2019-03-24T03:32:57.907Z,6.60
2019-03-24T03:35:26.784Z,6.56
2019-03-24T03:37:55.592Z,6.61
2019-03-24T03:40:24.422Z,6.54
2019-03-24T03:42:53.360Z,6.47
2019-03-24T03:45:29.054Z,6.32
2019-03-24T03:47:57.996Z,6.30
2019-03-24T03:50:26.862Z,6.21
2019-03-24T03:52:55.826Z,6.23
2019-03-24T03:55:24.773Z,6.25
2019-03-24T03:57:53.695Z,6.17
2019-03-24T04:00:45.896Z,5.95
2019-03-24T04:03:14.759Z,5.82
2019-03-24T04:05:43.657Z,5.81
2019-03-24T04:08:12.495Z,5.87
2019-03-24T04:10:41.343Z,5.88
2019-03-24T04:13:10.209Z,5.86
2019-03-24T04:15:39.082Z,5.84
2019-03-24T04:18:07.917Z,5.92
2019-03-24T04:20:36.842Z,5.83
2019-03-24T04:23:05.685Z,5.74
2019-03-24T04:25:34.533Z,5.68
2019-03-24T04:28:03.499Z,5.69
2019-03-24T04:30:32.347Z,5.72
2019-03-24T04:33:01.202Z,5.67
2019-03-24T04:35:30.059Z,5.73
2019-03-24T04:37:58.900Z,5.88
2019-03-24T04:40:27.853Z,5.89
2019-03-24T04:42:56.747Z,5.85
2019-03-24T04:45:25.571Z,5.85
2019-03-24T04:47:54.438Z,6.07
2019-03-24T04:50:23.351Z,6.22
2019-03-24T04:52:52.180Z,6.30
2019-03-24T04:55:21.028Z,6.29
2019-03-24T04:57:49.858Z,6.28
2019-03-24T05:00:21.630Z,6.33
2019-03-24T05:02:50.459Z,6.41
2019-03-24T05:05:19.319Z,6.37
2019-03-24T05:07:48.414Z,6.18
2019-03-24T05:10:22.885Z,6.16
2019-03-24T05:12:51.715Z,6.15
2019-03-24T05:15:20.545Z,6.23
2019-03-24T05:17:49.394Z,6.20
2019-03-24T05:20:18.237Z,6.16
2019-03-24T05:22:48.359Z,6.26
2019-03-24T05:25:17.527Z,6.33
2019-03-24T05:27:46.363Z,6.44
2019-03-24T05:30:15.309Z,6.66
2019-03-24T05:32:44.165Z,6.70
2019-03-24T05:35:13.006Z,6.72
2019-03-24T05:37:41.991Z,6.80
2019-03-24T05:40:11.007Z,7.01
2019-03-24T05:42:39.867Z,6.99
2019-03-24T05:45:09.432Z,7.25
2019-03-24T05:47:38.299Z,7.50
2019-03-24T05:50:09.940Z,7.76
2019-03-24T05:52:38.804Z,7.90
2019-03-24T05:55:08.263Z,8.16
2019-03-24T05:57:37.711Z,8.43
2019-03-24T06:00:10.072Z,8.46
2019-03-24T06:02:39.548Z,8.82
2019-03-24T06:05:09.262Z,9.03
2019-03-24T06:07:38.892Z,9.44
2019-03-24T06:10:09.461Z,9.55
2019-03-24T06:12:38.876Z,9.84
2019-03-24T06:15:09.112Z,10.00
2019-03-24T06:17:47.449Z,10.09
2019-03-24T06:20:09.726Z,10.08
2019-03-24T06:22:39.200Z,10.23
2019-03-24T06:25:08.764Z,10.39
2019-03-24T06:27:38.200Z,10.69
2019-03-24T06:30:08.500Z,10.66
2019-03-24T06:32:38.060Z,10.96
2019-03-24T06:35:07.584Z,11.19
2019-03-24T06:37:37.093Z,11.36
2019-03-24T06:40:07.720Z,11.62
2019-03-24T06:42:37.275Z,11.71
2019-03-24T06:45:07.721Z,11.87
2019-03-24T06:47:37.153Z,12.11
2019-03-24T06:50:08.419Z,12.17
2019-03-24T06:52:38.034Z,12.46
2019-03-24T06:55:07.739Z,12.60
2019-03-24T06:57:37.233Z,12.09
2019-03-24T07:00:11.496Z,12.55
2019-03-24T07:02:40.919Z,12.30
2019-03-24T07:05:10.954Z,12.75
2019-03-24T07:07:40.593Z,12.92
2019-03-24T07:10:10.437Z,13.14
2019-03-24T07:12:41.609Z,13.17
2019-03-24T07:15:11.453Z,13.49
2019-03-24T07:17:40.901Z,13.91
2019-03-24T07:20:10.841Z,14.01
2019-03-24T07:22:40.258Z,13.84
2019-03-24T07:25:10.157Z,13.99
2019-03-24T07:27:39.612Z,14.20
2019-03-24T07:30:10.275Z,14.79
2019-03-24T07:32:39.700Z,14.77
2019-03-24T07:35:09.558Z,14.88
2019-03-24T07:37:39.039Z,15.27
2019-03-24T07:40:10.046Z,15.27
2019-03-24T07:42:39.481Z,15.20
2019-03-24T07:45:09.443Z,15.45
2019-03-24T07:47:38.903Z,14.58
2019-03-24T07:50:09.422Z,14.62
2019-03-24T07:52:38.911Z,14.65
2019-03-24T07:55:08.445Z,15.09
2019-03-24T07:57:37.968Z,15.19
2019-03-24T08:00:08.302Z,15.22
2019-03-24T08:02:37.764Z,15.11
2019-03-24T08:05:07.317Z,15.42
2019-03-24T08:07:36.893Z,15.46
2019-03-24T08:10:07.971Z,15.37
2019-03-24T08:12:37.527Z,15.48
2019-03-24T08:15:07.300Z,15.22
2019-03-24T08:17:36.844Z,15.62
2019-03-24T08:20:07.520Z,15.84
2019-03-24T08:22:36.994Z,15.00
2019-03-24T08:25:07.524Z,15.69
2019-03-24T08:27:36.983Z,15.60
2019-03-24T08:30:08.540Z,15.82
2019-03-24T08:32:38.016Z,16.26
2019-03-24T08:35:07.571Z,15.91
2019-03-24T08:37:37.067Z,16.13
2019-03-24T08:40:08.314Z,16.03
2019-03-24T08:42:37.827Z,16.05
2019-03-24T08:45:09.257Z,16.32
2019-03-24T08:47:38.686Z,16.30
2019-03-24T08:50:08.742Z,16.68
2019-03-24T08:52:38.271Z,17.44
2019-03-24T08:55:07.715Z,17.32
2019-03-24T08:57:37.264Z,16.99
2019-03-24T09:00:07.202Z,17.42
2019-03-24T09:02:36.640Z,17.71
2019-03-24T09:05:07.578Z,17.23
2019-03-24T09:07:37.001Z,16.68
2019-03-24T09:10:07.568Z,16.90
2019-03-24T09:12:37.041Z,17.17
2019-03-24T09:15:07.638Z,16.89
2019-03-24T09:17:37.204Z,17.20
2019-03-24T09:20:07.029Z,17.22
2019-03-24T09:22:36.666Z,17.07
2019-03-24T09:25:07.751Z,17.04
2019-03-24T09:27:38.902Z,17.40
2019-03-24T09:30:11.283Z,17.30
2019-03-24T09:32:40.726Z,17.88
2019-03-24T09:35:10.550Z,18.14
2019-03-24T09:37:40.156Z,18.64
2019-03-24T09:40:12.531Z,18.72
2019-03-24T09:42:42.016Z,18.63
2019-03-24T09:45:11.586Z,18.66
2019-03-24T09:47:41.041Z,18.11
2019-03-24T09:50:10.642Z,17.96
2019-03-24T09:52:40.508Z,18.35
2019-03-24T09:55:10.029Z,18.70
2019-03-24T09:57:39.565Z,18.67
2019-03-24T10:00:09.221Z,18.59
2019-03-24T10:02:38.690Z,19.17
2019-03-24T10:05:08.201Z,19.43
2019-03-24T10:07:37.764Z,20.32
2019-03-24T10:10:08.292Z,19.51
2019-03-24T10:12:37.805Z,19.44
2019-03-24T10:15:07.380Z,19.26
2019-03-24T10:17:36.881Z,19.86
2019-03-24T10:20:06.705Z,19.89
2019-03-24T10:22:36.164Z,19.94
2019-03-24T10:25:07.202Z,19.95
2019-03-24T10:27:36.737Z,20.72
2019-03-24T10:30:07.980Z,20.95
2019-03-24T10:32:37.540Z,21.18
2019-03-24T10:35:07.810Z,21.59
2019-03-24T10:37:37.304Z,21.89
2019-03-24T10:40:10.885Z,21.50
2019-03-24T10:42:40.334Z,21.47
2019-03-24T10:45:10.310Z,21.21
2019-03-24T10:47:39.762Z,21.21
2019-03-24T10:50:10.103Z,21.20
2019-03-24T10:52:39.546Z,21.24
2019-03-24T10:55:11.006Z,21.01
2019-03-24T10:57:40.945Z,21.20
2019-03-24T11:00:16.101Z,21.47
2019-03-24T11:02:45.585Z,21.61
2019-03-24T11:05:15.156Z,21.31
2019-03-24T11:07:44.694Z,21.89
2019-03-24T11:10:14.355Z,22.13
2019-03-24T11:12:44.078Z,22.08
2019-03-24T11:15:13.693Z,22.49
2019-03-24T11:17:43.154Z,23.18
2019-03-24T11:20:12.849Z,22.54
2019-03-24T11:22:42.358Z,22.54
2019-03-24T11:25:12.380Z,22.78
2019-03-24T11:27:41.815Z,22.53
2019-03-24T11:30:13.481Z,22.13
2019-03-24T11:32:43.375Z,22.25
2019-03-24T11:35:13.304Z,22.25
2019-03-24T11:37:42.687Z,22.74
2019-03-24T11:40:12.551Z,23.20
2019-03-24T11:42:41.971Z,22.89
2019-03-24T11:45:12.211Z,23.58
2019-03-24T11:47:41.637Z,23.58
2019-03-24T11:50:11.002Z,23.27
2019-03-24T11:52:40.660Z,23.27
2019-03-24T11:55:10.991Z,22.88
2019-03-24T11:57:40.144Z,23.25
2019-03-24T12:00:14.725Z,23.25
2019-03-24T12:02:44.273Z,23.92
2019-03-24T12:05:13.619Z,23.86
2019-03-24T12:07:43.072Z,24.18
2019-03-24T12:10:13.453Z,23.93
2019-03-24T12:12:42.860Z,24.10
2019-03-24T12:15:12.253Z,23.87
2019-03-24T12:17:41.696Z,23.81
2019-03-24T12:20:11.427Z,23.88
2019-03-24T12:22:40.936Z,24.29
2019-03-24T12:25:10.501Z,24.03
2019-03-24T12:27:40.016Z,24.40
2019-03-24T12:30:11.368Z,24.40
2019-03-24T12:32:40.801Z,24.25
2019-03-24T12:35:10.475Z,23.92
2019-03-24T12:37:40.354Z,24.55
2019-03-24T12:40:10.472Z,24.72
2019-03-24T12:42:40.154Z,25.01
2019-03-24T12:45:11.146Z,25.17
2019-03-24T12:47:40.597Z,25.17
2019-03-24T12:50:13.606Z,25.05
2019-03-24T12:52:43.183Z,24.99
2019-03-24T12:55:12.428Z,24.99
2019-03-24T12:57:44.082Z,23.45
2019-03-24T13:00:13.686Z,23.45
2019-03-24T13:02:43.158Z,23.79
2019-03-24T13:05:12.952Z,23.27
2019-03-24T13:07:42.448Z,23.65
2019-03-24T13:10:12.163Z,23.65
2019-03-24T13:12:41.593Z,23.90
2019-03-24T13:15:11.185Z,23.90
2019-03-24T13:17:40.677Z,24.54
2019-03-24T13:20:20.439Z,24.54
2019-03-24T13:22:41.310Z,24.40
2019-03-24T13:25:10.869Z,23.93
2019-03-24T13:27:40.393Z,23.79
2019-03-24T13:30:10.117Z,23.79
2019-03-24T13:32:39.585Z,24.01
2019-03-24T13:35:08.998Z,24.49
2019-03-24T13:37:38.509Z,24.77
2019-03-24T13:40:07.632Z,25.12
2019-03-24T13:42:36.765Z,24.79
2019-03-24T13:45:07.402Z,24.65
2019-03-24T13:47:36.813Z,24.65
2019-03-24T13:50:07.720Z,24.19
2019-03-24T13:52:36.863Z,24.19
2019-03-24T13:55:07.074Z,24.36
2019-03-24T13:57:36.445Z,24.36
2019-03-24T14:00:07.600Z,24.54
2019-03-24T14:02:36.727Z,23.91
2019-03-24T14:05:06.247Z,23.73
2019-03-24T14:07:35.696Z,23.73
2019-03-24T14:10:08.399Z,23.81
2019-03-24T14:12:37.892Z,23.81
2019-03-24T14:15:07.566Z,23.88
2019-03-24T14:17:37.408Z,23.57
2019-03-24T14:20:09.446Z,23.57
2019-03-24T14:22:38.615Z,23.67
2019-03-24T14:25:08.314Z,24.13
2019-03-24T14:27:37.782Z,23.86
2019-03-24T14:30:09.082Z,23.52
2019-03-24T14:32:38.509Z,23.58
2019-03-24T14:35:09.105Z,23.85
2019-03-24T14:37:38.602Z,24.37
2019-03-24T14:40:08.692Z,24.37
2019-03-24T14:42:38.243Z,24.40
2019-03-24T14:45:09.591Z,24.13
2019-03-24T14:47:42.028Z,24.13
2019-03-24T14:50:11.688Z,23.22
2019-03-24T14:52:41.112Z,22.74
2019-03-24T14:55:10.580Z,22.74
2019-03-24T14:57:40.038Z,23.18
2019-03-24T15:00:10.307Z,23.56
2019-03-24T15:02:40.878Z,23.56
2019-03-24T15:05:10.789Z,23.36
2019-03-24T15:07:40.253Z,23.23
2019-03-24T15:10:09.862Z,23.23
2019-03-24T15:12:39.367Z,22.82
2019-03-24T15:15:09.027Z,22.82
2019-03-24T15:17:38.497Z,22.73
2019-03-24T15:20:08.378Z,23.20
2019-03-24T15:22:37.883Z,23.07
2019-03-24T15:25:07.506Z,23.07
2019-03-24T15:27:36.992Z,23.27
2019-03-24T15:30:08.128Z,23.51
2019-03-24T15:32:37.636Z,23.80
2019-03-24T15:35:08.183Z,24.06
2019-03-24T15:37:37.678Z,23.62
2019-03-24T15:40:07.638Z,23.62
2019-03-24T15:42:37.190Z,23.84
2019-03-24T15:45:08.608Z,23.84
2019-03-24T15:47:38.223Z,22.64
2019-03-24T15:50:08.185Z,22.64
2019-03-24T15:52:37.972Z,22.97
2019-03-24T15:55:07.610Z,22.59
2019-03-24T15:57:37.046Z,21.34
2019-03-24T16:00:08.204Z,21.34
2019-03-24T16:02:37.620Z,21.07
2019-03-24T16:05:07.409Z,20.74
2019-03-24T16:07:36.876Z,20.33
2019-03-24T16:10:07.916Z,20.14
2019-03-24T16:12:37.343Z,19.91
2019-03-24T16:15:08.524Z,19.72
2019-03-24T16:17:37.927Z,19.64
2019-03-24T16:20:07.842Z,19.33
2019-03-24T16:22:37.313Z,19.33
2019-03-24T16:25:07.878Z,19.17
2019-03-24T16:27:37.326Z,19.04
2019-03-24T16:30:08.787Z,18.95
2019-03-24T16:32:38.382Z,18.73
2019-03-24T16:35:07.999Z,18.64
2019-03-24T16:37:37.448Z,18.50
2019-03-24T16:40:08.494Z,18.30
2019-03-24T16:42:37.922Z,18.09
2019-03-24T16:45:07.396Z,18.01
2019-03-24T16:47:36.828Z,17.89
2019-03-24T16:50:09.724Z,17.70
2019-03-24T16:52:40.663Z,17.56
2019-03-24T16:55:12.135Z,17.39
2019-03-24T16:57:41.521Z,17.25
2019-03-24T17:00:11.532Z,17.20
2019-03-24T17:02:40.939Z,17.07
2019-03-24T17:05:10.544Z,17.00
2019-03-24T17:07:40.053Z,16.79
2019-03-24T17:10:09.721Z,16.63
2019-03-24T17:12:39.158Z,16.45
2019-03-24T17:15:09.027Z,16.33
2019-03-24T17:17:38.473Z,16.33
2019-03-24T17:20:08.737Z,16.32
2019-03-24T17:22:38.545Z,16.27
2019-03-24T17:25:08.590Z,16.18
2019-03-24T17:27:38.151Z,16.04
2019-03-24T17:30:12.493Z,15.98
2019-03-24T17:32:41.925Z,15.85
2019-03-24T17:35:12.285Z,15.81
2019-03-24T17:37:41.808Z,15.79
2019-03-24T17:40:12.589Z,15.72
2019-03-24T17:42:42.180Z,15.58
2019-03-24T17:45:12.797Z,15.52
2019-03-24T17:47:42.384Z,15.36
2019-03-24T17:50:12.742Z,15.23
2019-03-24T17:52:42.496Z,15.14
2019-03-24T17:55:12.528Z,15.14
2019-03-24T17:57:42.020Z,15.10
2019-03-24T18:00:15.836Z,15.09
2019-03-24T18:02:45.279Z,15.03
2019-03-24T18:05:14.930Z,14.98
2019-03-24T18:07:44.361Z,14.90
2019-03-24T18:10:13.829Z,14.92
2019-03-24T18:12:43.369Z,14.81
2019-03-24T18:15:13.190Z,14.73
2019-03-24T18:17:42.714Z,14.59
2019-03-24T18:20:14.098Z,14.43
2019-03-24T18:22:43.812Z,14.36
2019-03-24T18:25:13.362Z,14.28
2019-03-24T18:27:42.903Z,14.22
2019-03-24T18:30:13.161Z,14.10
2019-03-24T18:32:42.670Z,13.91
2019-03-24T18:35:12.376Z,13.73
2019-03-24T18:37:41.814Z,13.61
2019-03-24T18:40:11.485Z,13.46
2019-03-24T18:42:41.383Z,13.42
2019-03-24T18:45:12.915Z,13.25
2019-03-24T18:47:42.323Z,13.15
2019-03-24T18:50:12.428Z,13.09
2019-03-24T18:52:41.891Z,13.04
2019-03-24T18:55:12.844Z,12.97
2019-03-24T18:57:42.292Z,12.82
2019-03-24T19:00:13.459Z,12.74
2019-03-24T19:02:42.912Z,12.75
2019-03-24T19:05:12.713Z,12.71
2019-03-24T19:07:43.983Z,12.47
2019-03-24T19:10:14.426Z,12.41
2019-03-24T19:12:43.931Z,12.20
2019-03-24T19:15:16.270Z,12.11
2019-03-24T19:17:45.749Z,12.00
2019-03-24T19:20:15.562Z,11.84
2019-03-24T19:22:45.037Z,11.76
2019-03-24T19:25:14.612Z,11.52
2019-03-24T19:27:44.123Z,11.42
2019-03-24T19:30:18.950Z,11.32
2019-03-24T19:32:48.355Z,11.23
2019-03-24T19:35:17.854Z,11.22
2019-03-24T19:37:47.364Z,11.13
2019-03-24T19:40:30.904Z,11.01
2019-03-24T19:43:00.357Z,10.92
2019-03-24T19:45:29.845Z,10.74
2019-03-24T19:47:59.310Z,10.77
2019-03-24T19:50:28.767Z,10.69
2019-03-24T19:52:58.271Z,10.56
2019-03-24T19:55:27.918Z,10.58
2019-03-24T19:57:57.387Z,10.45
2019-03-24T20:00:26.834Z,10.35
2019-03-24T20:02:56.338Z,10.34
2019-03-24T20:05:26.935Z,10.35
2019-03-24T20:07:56.593Z,10.38
2019-03-24T20:10:26.072Z,10.40
2019-03-24T20:12:55.477Z,10.40
2019-03-24T20:15:25.153Z,10.42
2019-03-24T20:17:54.591Z,10.34
2019-03-24T20:20:24.165Z,10.23
2019-03-24T20:22:56.907Z,10.06
2019-03-24T20:25:24.776Z,10.01
2019-03-24T20:27:54.220Z,9.96
2019-03-24T20:30:23.723Z,9.99
2019-03-24T20:32:53.151Z,9.95
2019-03-24T20:35:22.625Z,9.82
2019-03-24T20:37:52.069Z,9.72
2019-03-24T20:40:21.540Z,9.61
2019-03-24T20:42:50.970Z,9.54
2019-03-24T20:45:20.456Z,9.52
2019-03-24T20:47:49.963Z,9.54
2019-03-24T20:50:19.452Z,9.55
2019-03-24T20:52:48.908Z,9.48
2019-03-24T20:55:18.409Z,9.38
2019-03-24T20:57:47.885Z,9.32
2019-03-24T21:00:20.215Z,9.34
2019-03-24T21:02:49.674Z,9.29
2019-03-24T21:05:19.117Z,9.25
2019-03-24T21:07:48.603Z,9.20
2019-03-24T21:10:18.027Z,9.14
2019-03-24T21:12:47.505Z,9.11
2019-03-24T21:15:16.972Z,9.11
2019-03-24T21:17:46.420Z,9.02
2019-03-24T21:20:15.832Z,9.01
2019-03-24T21:22:45.313Z,9.01
2019-03-24T21:25:14.765Z,8.98
2019-03-24T21:27:44.205Z,9.02
2019-03-24T21:30:14.178Z,9.11
2019-03-24T21:32:43.639Z,9.15
2019-03-24T21:35:13.101Z,9.14
2019-03-24T21:37:42.646Z,9.03
2019-03-24T21:40:12.310Z,8.93
2019-03-24T21:42:41.855Z,8.92
2019-03-24T21:45:11.412Z,8.89
2019-03-24T21:47:40.901Z,8.91
2019-03-24T21:50:10.320Z,8.92
2019-03-24T21:52:39.749Z,8.91
2019-03-24T21:55:09.219Z,8.81
2019-03-24T21:57:38.651Z,8.79
2019-03-24T22:00:08.570Z,8.74
2019-03-24T22:02:38.002Z,8.75
2019-03-24T22:05:07.568Z,8.72
2019-03-24T22:07:37.059Z,8.72
2019-03-24T22:10:06.894Z,8.73
2019-03-24T22:12:36.325Z,8.66
2019-03-24T22:15:09.776Z,8.62
2019-03-24T22:17:39.251Z,8.54
2019-03-24T22:20:08.721Z,8.45
2019-03-24T22:22:38.223Z,8.45
2019-03-24T22:25:07.804Z,8.46
2019-03-24T22:27:37.217Z,8.30
2019-03-24T22:30:08.046Z,8.20
2019-03-24T22:32:37.553Z,8.13
2019-03-24T22:35:07.797Z,8.18
2019-03-24T22:37:37.283Z,8.15
2019-03-24T22:40:08.443Z,8.16
2019-03-24T22:42:37.924Z,8.14
2019-03-24T22:45:07.579Z,7.90
2019-03-24T22:47:36.381Z,7.78
2019-03-24T22:50:08.057Z,7.83
2019-03-24T22:52:37.315Z,7.89
2019-03-24T22:55:08.056Z,7.95
2019-03-24T22:57:36.945Z,7.98
2019-03-24T23:00:15.301Z,7.94
2019-03-24T23:02:44.968Z,7.88
2019-03-24T23:05:14.538Z,7.79
2019-03-24T23:07:43.370Z,7.77
2019-03-24T23:10:12.358Z,7.85
2019-03-24T23:12:41.864Z,7.81
2019-03-24T23:15:10.786Z,7.83
2019-03-24T23:17:39.653Z,7.89
2019-03-24T23:20:09.327Z,7.86
2019-03-24T23:22:38.272Z,7.89
2019-03-24T23:25:07.947Z,7.80
2019-03-24T23:27:36.910Z,7.78
2019-03-24T23:30:07.791Z,7.77
2019-03-24T23:32:36.637Z,7.64
2019-03-24T23:35:07.094Z,7.53
2019-03-24T23:37:35.940Z,7.60
2019-03-24T23:40:06.331Z,7.54
2019-03-24T23:42:35.181Z,7.51
2019-03-24T23:45:05.549Z,7.58
2019-03-24T23:47:34.417Z,7.60
2019-03-24T23:50:03.432Z,7.61
2019-03-24T23:52:32.304Z,7.53
2019-03-24T23:55:01.211Z,7.56
2019-03-24T23:57:30.086Z,7.53
2019-03-24T23:59:58.974Z,7.43
